Time;durP1;ratioP1;P1;durP2;ratioP2;P2;SDS_P1;SDS_P2;PMS_P1;PMS_P2;Temp;Humidity;BMP_temperature;BMP_pressure;BME280_temperature;BME280_humidity;BME280_pressure;Samples;Min_cycle;Max_cycle;Signal;HPM_P1;HPM_P2
2023/03/23 00:00:30;;;;;;;10.20;5.30;;;;;;;2.69;67.08;96742.81;6319287;28;19922;-66
2023/03/23 00:03:33;;;;;;;;;;;;;;;2.75;66.73;96746.94;6320870;28;20051;-66
2023/03/23 00:06:39;;;;;;;8.10;5.63;;;;;;;2.84;66.63;96751.81;6320390;28;20362;-66
2023/03/23 00:09:43;;;;;;;5.78;4.80;;;;;;;2.99;66.50;96756.44;6318986;28;20139;-67
2023/03/23 00:12:49;;;;;;;8.38;5.00;;;;;;;3.11;66.10;96750.78;6320278;28;20093;-67
2023/03/23 00:15:56;;;;;;;7.85;5.20;;;;;;;3.11;66.01;96765.53;6320335;28;20055;-67
2023/03/23 00:19:07;;;;;;;8.68;5.65;;;;;;;3.08;65.70;96766.47;6320023;28;20048;-68
2023/03/23 00:22:12;;;;;;;8.90;5.35;;;;;;;3.15;65.66;96773.16;6320035;28;20049;-68
2023/03/23 00:25:16;;;;;;;9.50;5.22;;;;;;;3.14;65.69;96789.69;6319755;28;20077;-66
2023/03/23 00:28:24;;;;;;;7.00;5.35;;;;;;;3.18;65.47;96793.00;6319809;28;20071;-67
2023/03/23 00:31:35;;;;;;;10.25;5.20;;;;;;;3.10;65.50;96801.06;6319748;28;20418;-67
2023/03/23 00:34:41;;;;;;;7.20;4.70;;;;;;;3.04;65.66;96797.84;6318427;28;20528;-66
2023/03/23 00:37:45;;;;;;;6.88;4.88;;;;;;;3.08;65.85;96802.88;6320089;28;20081;-67
2023/03/23 00:40:51;;;;;;;10.50;5.60;;;;;;;3.14;65.64;96807.88;6319838;28;20054;-66
2023/03/23 00:43:57;;;;;;;6.70;4.97;;;;;;;3.23;65.43;96806.69;6319524;28;20080;-66
2023/03/23 00:47:03;;;;;;;6.85;5.43;;;;;;;3.23;65.04;96811.00;6319332;28;20123;-66
2023/03/23 00:50:07;;;;;;;9.45;5.30;;;;;;;3.19;65.17;96819.84;6319302;28;20094;-67
2023/03/23 00:53:12;;;;;;;9.85;5.60;;;;;;;3.06;65.28;96820.31;6319609;28;20124;-67
2023/03/23 00:56:17;;;;;;;9.50;5.60;;;;;;;2.89;65.33;96833.88;6319253;28;20085;-67
2023/03/23 00:59:22;;;;;;;10.18;5.82;;;;;;;2.78;65.76;96835.16;6319255;28;20529;-67
2023/03/23 01:02:27;;;;;;;9.77;5.85;;;;;;;2.61;65.99;96834.00;6319213;28;20040;-68
2023/03/23 01:05:39;;;;;;;10.52;5.50;;;;;;;2.40;66.46;96834.69;6319276;28;20047;-66
2023/03/23 01:08:48;;;;;;;7.75;5.78;;;;;;;2.27;67.11;96854.19;6322974;28;20050;-67
2023/03/23 01:11:55;;;;;;;8.93;5.50;;;;;;;2.25;67.44;96851.63;6324701;28;20043;-67
2023/03/23 01:15:00;;;;;;;11.55;6.35;;;;;;;2.28;67.45;96861.06;6324478;28;20260;-67
2023/03/23 01:18:08;;;;;;;10.63;6.68;;;;;;;2.20;67.48;96854.38;6324312;28;20100;-67
2023/03/23 01:21:16;;;;;;;10.32;6.40;;;;;;;2.14;67.62;96854.56;6324412;28;20447;-67
2023/03/23 01:24:21;;;;;;;9.10;6.13;;;;;;;1.99;67.97;96861.09;6323001;28;20058;-67
2023/03/23 01:27:25;;;;;;;11.90;6.20;;;;;;;1.84;68.25;96876.28;6324305;28;20048;-68
2023/03/23 01:30:30;;;;;;;10.50;6.75;;;;;;;1.71;68.74;96881.84;6324465;28;20424;-67
2023/03/23 01:33:36;;;;;;;10.27;7.03;;;;;;;1.60;69.05;96889.06;6324065;28;20032;-67
2023/03/23 01:36:39;;;;;;;11.65;7.20;;;;;;;1.68;69.36;96894.91;6323700;28;20489;-67
2023/03/23 01:39:44;;;;;;;11.30;7.50;;;;;;;1.77;69.31;96897.22;6323964;28;20563;-67
2023/03/23 01:42:48;;;;;;;12.85;7.70;;;;;;;1.80;69.19;96897.13;6323794;28;20061;-67
2023/03/23 01:45:52;;;;;;;10.98;6.70;;;;;;;1.79;69.03;96895.44;6323697;28;20040;-67
2023/03/23 01:48:57;;;;;;;;;;;;;;;1.71;68.85;96896.56;6322568;28;20109;-67
2023/03/23 01:52:10;;;;;;;12.15;6.70;;;;;;;1.76;69.06;96905.91;6323404;28;20018;-67
2023/03/23 01:55:15;;;;;;;14.32;7.25;;;;;;;1.87;69.56;96909.91;6323330;28;20082;-67
2023/03/23 01:58:26;;;;;;;10.93;6.97;;;;;;;1.79;69.53;96921.38;6323221;28;20048;-67
2023/03/23 02:01:36;;;;;;;10.77;7.15;;;;;;;1.76;69.08;96931.00;6323333;28;20443;-67
2023/03/23 02:04:41;;;;;;;8.05;6.50;;;;;;;1.65;69.34;96933.91;6323261;28;20042;-67
2023/03/23 02:07:48;;;;;;;11.55;7.05;;;;;;;1.52;69.76;96932.53;6323086;28;20451;-67
2023/03/23 02:10:53;;;;;;;15.52;8.60;;;;;;;1.32;70.12;96930.50;6322755;28;20571;-69
2023/03/23 02:13:58;;;;;;;10.57;7.22;;;;;;;1.17;70.31;96925.72;6322940;28;20044;-67
2023/03/23 02:17:24;;;;;;;11.35;6.63;;;;;;;1.21;70.65;96928.19;6322889;28;20413;-67
2023/03/23 02:21:06;;;;;;;10.23;6.90;;;;;;;1.33;69.76;96938.25;6321669;28;20572;-67
2023/03/23 02:24:49;;;;;;;13.63;7.95;;;;;;;1.28;69.32;96944.44;6291804;28;20655;-67
2023/03/23 02:28:09;;;;;;;11.98;7.18;;;;;;;1.21;69.96;96948.91;6234619;28;20048;-66
2023/03/23 02:31:29;;;;;;;11.30;7.22;;;;;;;1.23;69.49;96952.31;6322568;28;20066;-67
2023/03/23 02:34:57;;;;;;;10.20;6.63;;;;;;;1.21;69.17;96959.28;6322510;28;20058;-67
2023/03/23 02:38:15;;;;;;;9.48;6.32;;;;;;;1.33;68.61;96958.97;6322373;28;20046;-67
2023/03/23 02:41:22;;;;;;;9.90;6.43;;;;;;;1.39;68.86;96967.47;6322279;28;20196;-67
2023/03/23 02:44:30;;;;;;;12.77;7.47;;;;;;;1.41;68.04;96973.47;6322379;28;20446;-67
2023/03/23 02:47:38;;;;;;;12.32;6.38;;;;;;;1.47;67.88;96975.88;6322072;28;20089;-67
2023/03/23 02:50:50;;;;;;;9.00;6.07;;;;;;;1.54;67.60;96982.63;6322099;28;20043;-67
2023/03/23 02:53:57;;;;;;;7.47;5.53;;;;;;;1.70;67.07;96994.28;6322140;28;20085;-67
2023/03/23 02:57:02;;;;;;;10.43;6.75;;;;;;;1.78;66.14;96992.31;6321739;28;20051;-67
2023/03/23 03:00:11;;;;;;;11.05;6.18;;;;;;;1.91;65.41;97007.53;6321827;28;20051;-67
2023/03/23 03:03:19;;;;;;;9.27;6.40;;;;;;;1.96;65.05;97016.03;6321499;28;20039;-67
2023/03/23 03:06:34;;;;;;;14.82;9.88;;;;;;;1.95;65.33;97023.00;6321711;28;20036;-67
2023/03/23 03:09:50;;;;;;;20.60;11.40;;;;;;;1.92;65.59;97029.97;6321652;28;20367;-67
2023/03/23 03:13:09;;;;;;;24.20;14.00;;;;;;;1.90;65.38;97034.38;6321726;28;20494;-67
2023/03/23 03:16:27;;;;;;;23.13;14.00;;;;;;;1.93;65.38;97026.50;6321515;28;20044;-67
2023/03/23 03:19:42;;;;;;;22.27;13.05;;;;;;;1.97;65.59;97033.31;6321303;28;20059;-67
2023/03/23 03:22:47;;;;;;;23.48;14.00;;;;;;;2.01;65.39;97040.13;6321266;28;20067;-67
2023/03/23 03:25:54;;;;;;;16.65;9.05;;;;;;;2.10;65.25;97047.66;6321195;28;20081;-67
2023/03/23 03:28:59;;;;;;;15.70;8.48;;;;;;;2.18;65.35;97050.88;6320930;28;20046;-67
2023/03/23 03:32:08;;;;;;;12.88;9.05;;;;;;;2.30;65.10;97059.22;6320986;28;20133;-68
2023/03/23 03:35:14;;;;;;;11.40;8.05;;;;;;;2.40;64.34;97058.03;6320858;28;20131;-67
2023/03/23 03:38:19;;;;;;;11.38;7.97;;;;;;;2.54;64.56;97062.81;6320773;28;20043;-67
2023/03/23 03:41:23;;;;;;;12.38;7.72;;;;;;;2.63;64.26;97066.00;6321068;28;20042;-67
2023/03/23 03:44:27;;;;;;;;;;;;;;;2.76;63.97;97086.41;6320969;28;20078;-68
2023/03/23 03:47:32;;;;;;;13.50;7.70;;;;;;;2.87;63.45;97092.13;6320635;28;20010;-67
2023/03/23 03:50:37;;;;;;;11.05;7.40;;;;;;;3.01;63.05;97087.34;6321275;28;20054;-68
2023/03/23 03:53:42;;;;;;;14.20;7.82;;;;;;;3.14;62.45;97083.47;6320559;28;20036;-66
2023/03/23 03:56:46;;;;;;;11.05;7.60;;;;;;;3.26;62.17;97095.22;6320234;28;20513;-66
2023/03/23 03:59:50;;;;;;;11.75;7.05;;;;;;;3.41;61.40;97095.63;6319387;28;20132;-67
2023/03/23 04:02:54;;;;;;;13.15;6.70;;;;;;;3.51;61.05;97097.88;6320398;28;20047;-68
2023/03/23 04:05:59;;;;;;;;;;;;;;;3.66;60.61;97103.47;6320549;28;20139;-67
2023/03/23 04:09:06;;;;;;;12.82;6.70;;;;;;;3.74;60.15;97106.66;6320077;28;19920;-67
2023/03/23 04:12:10;;;;;;;13.02;7.03;;;;;;;3.88;59.40;97100.97;6319718;28;20044;-68
2023/03/23 04:15:15;;;;;;;13.32;6.47;;;;;;;4.01;58.81;97108.28;6319958;28;20043;-67
2023/03/23 04:18:21;;;;;;;14.00;6.63;;;;;;;4.14;58.43;97113.94;6319688;28;20105;-67
2023/03/23 04:21:28;;;;;;;10.23;6.65;;;;;;;4.29;58.14;97120.34;6320214;28;20040;-68
2023/03/23 04:24:33;;;;;;;11.65;5.95;;;;;;;4.45;57.20;97121.50;6319737;28;20044;-67
2023/03/23 04:27:39;;;;;;;11.32;6.47;;;;;;;4.59;56.49;97125.38;6319600;28;20562;-67
2023/03/23 04:30:45;;;;;;;10.35;5.53;;;;;;;4.67;55.77;97118.09;6319924;28;20078;-67
2023/03/23 04:33:52;;;;;;;8.95;5.82;;;;;;;4.82;55.15;97133.16;6319841;28;20052;-67
2023/03/23 04:36:57;;;;;;;9.43;6.13;;;;;;;4.93;54.54;97141.44;6319619;28;20058;-67
2023/03/23 04:40:11;;;;;;;10.93;6.47;;;;;;;5.11;54.17;97159.88;6319680;28;20036;-67
2023/03/23 04:43:21;;;;;;;8.98;6.43;;;;;;;5.28;53.79;97157.47;6317665;28;20050;-67
2023/03/23 04:46:28;;;;;;;11.27;5.03;;;;;;;5.42;53.38;97153.47;6319451;28;20088;-67
2023/03/23 04:49:33;;;;;;;8.50;5.95;;;;;;;5.54;52.62;97160.81;6319524;28;20081;-67
2023/03/23 04:52:40;;;;;;;8.73;5.20;;;;;;;5.70;52.27;97164.50;6319245;28;20061;-67
2023/03/23 04:55:44;;;;;;;7.40;5.35;;;;;;;5.81;51.73;97172.75;6317937;28;20110;-67
2023/03/23 04:58:48;;;;;;;11.13;5.68;;;;;;;5.97;50.92;97166.91;6319192;28;20048;-67
2023/03/23 05:01:52;;;;;;;18.17;6.95;;;;;;;6.12;50.46;97171.50;6319420;28;20046;-68
2023/03/23 05:04:57;;;;;;;18.75;6.70;;;;;;;6.20;49.41;97169.44;6317890;28;20174;-67
2023/03/23 05:08:01;;;;;;;15.55;6.78;;;;;;;6.41;49.12;97185.09;6319225;28;20212;-67
2023/03/23 05:11:05;;;;;;;;;;;;;;;6.66;49.24;97179.66;6319569;28;20059;-67
2023/03/23 05:14:09;;;;;;;15.40;6.53;;;;;;;6.80;48.68;97184.25;6317974;28;20002;-67
2023/03/23 05:17:16;;;;;;;11.30;5.93;;;;;;;6.95;47.40;97189.63;6319464;28;20505;-67
2023/03/23 05:20:21;;;;;;;10.23;6.03;;;;;;;7.00;47.04;97185.97;6319088;28;20425;-67
2023/03/23 05:23:30;;;;;;;12.32;6.00;;;;;;;7.10;46.81;97188.09;6319251;28;20055;-67
2023/03/23 05:26:34;;;;;;;11.15;6.03;;;;;;;7.18;46.40;97187.75;6319110;28;20033;-66
2023/03/23 05:29:40;;;;;;;12.75;6.05;;;;;;;7.35;45.88;97197.44;6319154;28;20547;-66
2023/03/23 05:32:50;;;;;;;13.18;6.55;;;;;;;7.51;45.64;97198.41;6319000;28;20130;-67
2023/03/23 05:35:54;;;;;;;12.55;6.20;;;;;;;7.83;44.71;97199.47;6317844;28;20055;-69
2023/03/23 05:38:59;;;;;;;;;;;;;;;8.34;45.02;97202.19;6319239;28;20048;-67
2023/03/23 05:42:06;;;;;;;11.95;6.40;;;;;;;9.21;42.90;97196.81;6317121;28;20389;-67
2023/03/23 05:45:11;;;;;;;14.05;6.20;;;;;;;13.39;36.51;97204.16;6318820;28;20131;-68
2023/03/23 05:48:16;;;;;;;10.52;5.40;;;;;;;18.19;30.17;97212.50;6318778;28;20056;-68
2023/03/23 05:51:21;;;;;;;10.52;5.35;;;;;;;22.29;25.11;97213.13;6318669;28;20417;-67
2023/03/23 05:54:26;;;;;;;13.13;5.15;;;;;;;25.10;22.28;97217.19;6321199;28;20074;-68
2023/03/23 05:57:32;;;;;;;12.95;4.80;;;;;;;27.49;19.22;97216.50;6323405;28;20046;-68
2023/03/23 06:00:36;;;;;;;8.15;3.70;;;;;;;28.00;18.13;97215.34;6323271;28;20062;-69
2023/03/23 06:03:44;;;;;;;8.93;4.15;;;;;;;29.83;17.07;97217.84;6321646;28;20051;-68
2023/03/23 06:06:49;;;;;;;6.00;4.43;;;;;;;31.77;15.31;97219.94;6323252;28;20039;-67
2023/03/23 06:09:54;;;;;;;7.95;4.00;;;;;;;33.47;13.70;97220.75;6322864;28;20451;-67
2023/03/23 06:12:59;;;;;;;6.78;3.65;;;;;;;35.12;12.59;97222.25;6323083;28;20054;-68
2023/03/23 06:16:03;;;;;;;6.40;3.55;;;;;;;35.65;11.88;97227.22;6322839;28;20039;-68
2023/03/23 06:19:08;;;;;;;6.78;3.33;;;;;;;35.86;11.57;97230.25;6321275;28;20147;-69
2023/03/23 06:22:14;;;;;;;11.60;5.70;;;;;;;36.79;10.93;97230.31;6322820;28;20044;-68
2023/03/23 06:25:17;;;;;;;8.07;3.05;;;;;;;36.14;10.61;97235.56;6322603;28;20047;-68
2023/03/23 06:28:21;;;;;;;11.10;3.13;;;;;;;33.34;10.86;97234.63;6322284;28;20058;-68
2023/03/23 06:31:27;;;;;;;8.35;2.70;;;;;;;31.20;11.82;97229.28;6322124;28;20039;-67
2023/03/23 06:34:32;;;;;;;7.18;2.50;;;;;;;31.65;11.92;97237.22;6322567;28;20046;-68
2023/03/23 06:37:36;;;;;;;5.80;2.40;;;;;;;33.58;10.72;97240.13;6322421;28;20036;-68
2023/03/23 06:40:46;;;;;;;15.65;2.97;;;;;;;34.74;10.24;97242.88;6321095;28;20093;-69
2023/03/23 06:43:51;;;;;;;15.18;4.15;;;;;;;34.10;10.01;97248.41;6322347;28;20043;-67
2023/03/23 06:46:55;;;;;;;12.73;3.50;;;;;;;34.05;10.44;97240.09;6322259;28;20081;-68
2023/03/23 06:50:00;;;;;;;10.20;3.20;;;;;;;33.92;10.11;97239.28;6322539;28;20479;-68
2023/03/23 06:53:07;;;;;;;6.13;2.53;;;;;;;33.67;10.17;97244.97;6321995;28;20445;-68
2023/03/23 06:56:13;;;;;;;12.18;2.90;;;;;;;33.57;10.04;97236.56;6321730;28;20056;-70
2023/03/23 06:59:17;;;;;;;12.23;3.05;;;;;;;34.63;9.91;97241.88;6321892;28;20085;-68
2023/03/23 07:02:23;;;;;;;7.47;2.50;;;;;;;35.30;9.22;97243.88;6321706;28;20093;-68
2023/03/23 07:05:27;;;;;;;8.60;2.67;;;;;;;35.69;8.77;97250.25;6321237;28;20058;-68
2023/03/23 07:08:34;;;;;;;5.65;2.30;;;;;;;35.31;8.81;97238.16;6321761;28;20046;-68
2023/03/23 07:11:39;;;;;;;6.25;2.63;;;;;;;34.53;9.50;97247.09;6320013;28;20055;-67
2023/03/23 07:14:42;;;;;;;5.40;2.75;;;;;;;34.98;9.19;97244.41;6321508;28;20047;-68
2023/03/23 07:17:47;;;;;;;7.82;3.13;;;;;;;35.22;8.92;97250.59;6321385;28;20127;-68
2023/03/23 07:20:53;;;;;;;3.88;2.08;;;;;;;34.66;8.70;97249.56;6321351;28;20101;-68
2023/03/23 07:23:59;;;;;;;9.40;2.22;;;;;;;33.96;9.38;97247.81;6320857;28;20129;-69
2023/03/23 07:27:06;;;;;;;4.80;2.10;;;;;;;35.10;8.87;97252.56;6320947;28;20055;-68
2023/03/23 07:30:10;;;;;;;6.68;2.40;;;;;;;35.89;8.74;97257.94;6321121;28;20122;-68
2023/03/23 07:33:15;;;;;;;2.95;2.53;;;;;;;35.43;8.89;97248.19;6321027;28;20440;-67
2023/03/23 07:36:20;;;;;;;2.33;2.10;;;;;;;33.98;9.82;97246.50;6320995;28;20043;-68
2023/03/23 07:39:25;;;;;;;3.42;2.15;;;;;;;33.99;9.93;97242.69;6321004;28;20039;-68
2023/03/23 07:42:30;;;;;;;5.45;2.33;;;;;;;33.49;9.97;97254.09;6320885;28;20040;-67
2023/03/23 07:45:35;;;;;;;4.57;2.28;;;;;;;33.22;10.25;97255.59;6302692;28;20585;-68
2023/03/23 07:48:42;;;;;;;2.22;2.03;;;;;;;32.59;10.29;97249.59;6320774;28;20044;-68
2023/03/23 07:51:46;;;;;;;3.10;1.85;;;;;;;32.25;9.98;97247.50;6320641;28;20451;-68
2023/03/23 07:54:51;;;;;;;2.38;1.95;;;;;;;32.32;10.18;97248.22;6320294;28;20047;-68
2023/03/23 07:57:56;;;;;;;3.97;2.20;;;;;;;31.81;10.16;97235.81;6320323;28;20138;-68
2023/03/23 08:01:00;;;;;;;4.50;1.67;;;;;;;31.56;10.61;97238.59;6320230;28;20513;-68
2023/03/23 08:04:07;;;;;;;2.83;1.67;;;;;;;32.33;9.89;97245.28;6320528;28;20209;-68
2023/03/23 08:07:12;;;;;;;3.95;2.17;;;;;;;33.14;9.30;97247.75;6320362;28;20040;-68
2023/03/23 08:10:17;;;;;;;5.38;1.83;;;;;;;33.29;9.20;97242.66;6320267;28;20047;-68
2023/03/23 08:13:22;;;;;;;3.10;1.70;;;;;;;34.18;8.72;97245.31;6320114;28;20077;-69
2023/03/23 08:16:27;;;;;;;2.47;1.60;;;;;;;34.09;8.68;97260.41;6319031;28;20044;-70
2023/03/23 08:19:36;;;;;;;3.45;1.73;;;;;;;33.33;8.73;97259.41;6319944;28;20040;-68
2023/03/23 08:22:44;;;;;;;2.90;1.77;;;;;;;32.61;9.41;97258.38;6319995;28;20038;-69
2023/03/23 08:25:49;;;;;;;6.60;1.90;;;;;;;32.99;9.44;97249.03;6321597;28;20071;-68
2023/03/23 08:28:54;;;;;;;3.60;1.95;;;;;;;34.04;9.02;97246.63;6320054;28;20054;-69
2023/03/23 08:31:58;;;;;;;4.70;2.10;;;;;;;34.33;8.65;97259.25;6318187;28;20048;-70
2023/03/23 08:35:04;;;;;;;3.03;1.70;;;;;;;33.23;9.44;97254.53;6319700;28;20065;-69
2023/03/23 08:38:07;;;;;;;2.42;1.70;;;;;;;32.06;10.17;97244.78;6319630;28;20098;-68
2023/03/23 08:41:12;;;;;;;2.15;1.95;;;;;;;31.11;10.06;97245.00;6319121;28;20052;-69
2023/03/23 08:44:17;;;;;;;4.03;1.90;;;;;;;30.58;10.88;97232.59;6319573;28;20069;-69
2023/03/23 08:47:21;;;;;;;4.03;1.92;;;;;;;30.94;10.57;97235.72;6319524;28;20036;-69
2023/03/23 08:50:30;;;;;;;7.30;2.35;;;;;;;30.73;10.68;97232.28;6319418;28;20044;-68
2023/03/23 08:53:36;;;;;;;2.92;2.00;;;;;;;31.76;10.37;97228.31;6319111;28;20092;-69
2023/03/23 08:56:42;;;;;;;4.38;2.20;;;;;;;33.20;10.00;97227.72;6318962;28;20097;-69
2023/03/23 08:59:46;;;;;;;6.15;2.53;;;;;;;33.39;9.59;97237.47;6318856;28;20036;-68
2023/03/23 09:02:53;;;;;;;5.20;2.72;;;;;;;33.23;9.59;97232.72;6319608;28;20044;-69
2023/03/23 09:06:03;;;;;;;4.22;2.72;;;;;;;33.28;9.85;97232.84;6319313;28;20542;-69
2023/03/23 09:09:08;;;;;;;4.45;2.90;;;;;;;32.88;9.88;97234.28;6319310;28;20421;-68
2023/03/23 09:12:13;;;;;;;4.47;2.50;;;;;;;32.35;10.47;97220.53;6319110;28;20055;-68
2023/03/23 09:15:19;;;;;;;4.25;2.53;;;;;;;32.11;10.69;97225.88;6319016;28;20036;-69
2023/03/23 09:18:25;;;;;;;6.60;2.92;;;;;;;32.28;10.73;97214.38;6318786;28;20044;-68
2023/03/23 09:21:30;;;;;;;6.25;3.50;;;;;;;32.52;10.61;97221.59;6319069;28;20493;-68
2023/03/23 09:24:35;;;;;;;3.80;2.90;;;;;;;33.04;9.73;97208.28;6318815;28;20135;-69
2023/03/23 09:27:40;;;;;;;5.75;3.08;;;;;;;32.78;10.13;97211.38;6319039;28;20405;-69
2023/03/23 09:30:47;;;;;;;7.35;3.30;;;;;;;32.51;10.20;97209.03;6324179;28;20036;-69
2023/03/23 09:33:55;;;;;;;5.35;2.90;;;;;;;31.44;10.63;97192.25;6323965;28;20447;-67
2023/03/23 09:37:04;;;;;;;6.15;3.60;;;;;;;31.09;10.71;97196.31;6324048;28;20185;-68
2023/03/23 09:40:14;;;;;;;5.20;3.17;;;;;;;30.86;10.88;97191.47;6323939;28;20048;-69
2023/03/23 09:43:42;;;;;;;3.47;2.97;;;;;;;30.47;11.56;97191.72;6323999;28;20040;-68
2023/03/23 09:47:14;;;;;;;6.18;2.88;;;;;;;31.41;11.13;97184.56;6323703;28;20576;-69
2023/03/23 09:50:26;;;;;;;4.38;3.17;;;;;;;29.80;11.84;97181.13;6323259;28;20443;-68
2023/03/23 09:53:41;;;;;;;4.60;3.43;;;;;;;29.66;11.78;97179.50;6323603;28;20047;-68
2023/03/23 09:56:45;;;;;;;6.03;3.67;;;;;;;29.52;11.63;97174.09;6322890;28;20078;-69
2023/03/23 09:59:56;;;;;;;5.35;3.45;;;;;;;28.96;12.41;97174.56;6323254;28;20105;-70
2023/03/23 10:03:11;;;;;;;5.55;3.75;;;;;;;29.51;11.91;97172.44;6323250;28;20043;-69
2023/03/23 10:06:17;;;;;;;11.73;6.55;;;;;;;29.05;12.28;97167.91;6322525;28;20058;-69
2023/03/23 10:09:21;;;;;;;8.00;5.68;;;;;;;28.96;12.75;97163.72;6322995;28;20131;-68
2023/03/23 10:12:30;;;;;;;7.03;4.28;;;;;;;28.54;12.48;97160.38;6323179;28;20048;-68
2023/03/23 10:15:35;;;;;;;4.90;4.07;;;;;;;27.52;12.83;97162.03;6322756;28;20052;-69
2023/03/23 10:18:43;;;;;;;6.00;4.20;;;;;;;26.68;14.15;97162.03;6322790;28;20048;-69
2023/03/23 10:22:09;;;;;;;6.70;4.10;;;;;;;26.95;14.08;97163.09;6322898;28;20170;-69
2023/03/23 10:25:14;;;;;;;4.80;3.47;;;;;;;26.52;14.42;97159.59;6321994;28;20505;-69
2023/03/23 10:28:21;;;;;;;5.78;4.03;;;;;;;25.83;14.58;97155.50;6322703;28;20136;-69
2023/03/23 10:31:38;;;;;;;7.82;3.90;;;;;;;24.59;15.78;97157.75;6321987;28;20051;-69
2023/03/23 10:34:59;;;;;;;4.63;3.35;;;;;;;24.89;15.69;97157.84;6322251;28;20044;-70
2023/03/23 10:38:12;;;;;;;7.65;4.22;;;;;;;24.09;16.44;97156.44;6322308;28;20048;-69
2023/03/23 10:41:17;;;;;;;3.58;3.25;;;;;;;23.11;17.35;97151.44;6321487;28;20071;-68
2023/03/23 10:44:26;;;;;;;6.05;3.67;;;;;;;22.83;18.13;97149.09;6322309;28;20048;-69
2023/03/23 10:47:28;;;;;;;5.32;3.65;;;;;;;23.15;17.78;97158.13;6322149;28;20036;-69
2023/03/23 10:50:37;;;;;;;6.28;3.50;;;;;;;22.95;17.94;97151.44;6322113;28;20054;-68
2023/03/23 10:53:47;;;;;;;4.25;3.25;;;;;;;22.54;18.13;97154.16;6322023;28;20043;-69
2023/03/23 10:56:53;;;;;;;5.97;5.00;;;;;;;21.72;19.22;97148.66;6321759;28;20052;-70
2023/03/23 11:00:17;;;;;;;6.57;3.63;;;;;;;22.00;19.15;97162.63;6320970;28;20059;-68
2023/03/23 11:03:37;;;;;;;6.18;4.00;;;;;;;22.18;19.32;97159.81;6321650;28;20082;-69
2023/03/23 11:06:46;;;;;;;6.85;3.80;;;;;;;21.38;19.95;97149.50;6321285;28;20048;-69
2023/03/23 11:09:56;;;;;;;5.65;3.60;;;;;;;20.84;20.87;97146.16;6321462;28;20047;-68
2023/03/23 11:13:00;;;;;;;6.43;3.77;;;;;;;20.36;21.45;97142.09;6321476;28;20039;-68
2023/03/23 11:16:05;;;;;;;5.93;4.07;;;;;;;19.58;22.26;97150.63;6320224;28;20040;-69
2023/03/23 11:19:25;;;;;;;5.72;3.83;;;;;;;19.40;22.84;97141.75;6321617;28;20601;-68
2023/03/23 11:22:32;;;;;;;8.65;3.92;;;;;;;19.56;22.88;97141.94;6321096;28;20078;-70
2023/03/23 11:25:55;;;;;;;8.43;6.25;;;;;;;19.97;22.37;97145.06;6321442;28;20044;-68
2023/03/23 11:28:56;;;;;;;9.05;4.85;;;;;;;19.54;22.86;97143.91;6319550;28;20059;-67
2023/03/23 11:32:00;;;;;;;6.40;3.90;;;;;;;18.92;23.67;97145.44;6321221;28;20044;-68
2023/03/23 11:35:07;;;;;;;5.60;3.58;;;;;;;18.18;24.18;97117.63;6320681;28;20506;-69
2023/03/23 11:38:21;;;;;;;6.60;4.10;;;;;;;18.30;24.40;97142.28;6320968;28;20043;-68
2023/03/23 11:41:31;;;;;;;7.10;4.60;;;;;;;18.16;24.79;97144.38;6320564;28;20625;-68
2023/03/23 11:44:36;;;;;;;7.30;4.68;;;;;;;18.37;24.38;97144.25;6320757;28;20036;-69
2023/03/23 11:47:56;;;;;;;8.48;4.80;;;;;;;17.44;25.84;97139.34;6320671;28;20044;-67
2023/03/23 11:51:04;;;;;;;5.20;3.92;;;;;;;16.81;26.72;97136.84;6320323;28;20044;-68
2023/03/23 11:54:20;;;;;;;8.32;4.90;;;;;;;15.97;28.67;97131.47;6320406;28;20047;-67
2023/03/23 11:57:24;;;;;;;9.05;4.70;;;;;;;15.87;28.30;97141.16;6318981;28;20040;-70
2023/03/23 12:00:28;;;;;;;10.00;4.93;;;;;;;16.06;28.10;97130.72;6320189;28;20485;-67
2023/03/23 12:04:11;;;;;;;6.85;4.93;;;;;;;16.08;27.99;97127.94;6320069;28;20126;-67
2023/03/23 12:07:50;;;;;;;6.97;4.38;;;;;;;15.96;28.17;97136.91;6296432;28;20056;-68
2023/03/23 12:11:01;;;;;;;6.07;4.50;;;;;;;16.00;28.41;97130.38;6319894;28;20493;-68
2023/03/23 12:14:20;;;;;;;6.65;4.55;;;;;;;17.28;27.03;97130.03;6319890;28;20071;-68
2023/03/23 12:17:57;;;;;;;7.47;4.30;;;;;;;17.25;26.85;97132.13;6319846;28;20421;-70
2023/03/23 12:21:22;;;;;;;9.95;4.85;;;;;;;16.44;28.16;97139.94;6319659;28;20098;-67
2023/03/23 12:24:38;;;;;;;5.47;4.47;;;;;;;15.36;29.51;97141.72;6319805;28;20044;-67
2023/03/23 12:28:10;;;;;;;7.03;4.53;;;;;;;14.42;31.17;97140.22;6319893;28;20573;-68
2023/03/23 12:31:18;;;;;;;9.77;5.57;;;;;;;13.62;32.65;97136.41;6318219;28;20140;-69
2023/03/23 12:34:39;;;;;;;8.98;5.38;;;;;;;13.30;32.92;97130.78;6318063;28;20055;-67
2023/03/23 12:38:10;;;;;;;6.35;4.53;;;;;;;12.73;33.99;97126.00;6319249;28;20056;-68
2023/03/23 12:41:17;;;;;;;9.93;4.90;;;;;;;12.13;35.36;97109.81;6319428;28;20051;-67
2023/03/23 12:44:32;;;;;;;7.22;4.85;;;;;;;11.75;36.01;97122.03;6319259;28;20056;-68
2023/03/23 12:47:50;;;;;;;6.95;4.32;;;;;;;11.61;36.23;97115.88;6319715;28;20051;-67
2023/03/23 12:51:04;;;;;;;7.15;5.03;;;;;;;11.50;36.80;97110.47;6319098;28;20039;-68
2023/03/23 12:54:34;;;;;;;7.32;4.80;;;;;;;11.24;37.38;97120.88;6319038;28;20043;-67
2023/03/23 12:57:42;;;;;;;7.45;5.50;;;;;;;11.02;38.25;97116.13;6318823;28;20055;-68
2023/03/23 13:00:48;;;;;;;7.00;5.28;;;;;;;10.79;38.67;97116.72;6319019;28;20136;-68
2023/03/23 13:04:05;;;;;;;8.27;5.15;;;;;;;10.42;39.87;97110.25;6318725;28;20513;-68
2023/03/23 13:07:12;;;;;;;7.60;4.82;;;;;;;9.85;40.68;97103.88;6319102;28;20046;-68
2023/03/23 13:10:26;;;;;;;7.70;5.45;;;;;;;9.76;41.52;97103.56;6318648;28;20059;-68
2023/03/23 13:13:53;;;;;;;6.65;4.95;;;;;;;9.37;41.96;97103.13;6319283;28;20043;-68
2023/03/23 13:17:28;;;;;;;8.85;6.10;;;;;;;9.09;42.85;97108.25;6319369;28;20505;-68
2023/03/23 13:20:48;;;;;;;7.22;5.63;;;;;;;8.80;44.05;97108.03;6318048;28;20048;-67
2023/03/23 13:23:58;;;;;;;8.20;5.68;;;;;;;8.29;45.28;97107.19;6318818;28;20112;-68
2023/03/23 13:27:02;;;;;;;10.30;6.07;;;;;;;7.79;46.37;97108.88;6319119;28;20498;-68
2023/03/23 13:30:05;;;;;;;8.65;6.80;;;;;;;7.47;47.50;97113.06;6318110;28;20139;-67
2023/03/23 13:33:12;;;;;;;10.70;6.35;;;;;;;7.02;48.87;97106.50;6318764;28;20089;-68
2023/03/23 13:36:26;;;;;;;11.32;6.65;;;;;;;6.67;49.80;97111.56;6318512;28;20052;-68
2023/03/23 13:39:35;;;;;;;10.10;6.38;;;;;;;6.36;50.44;97108.63;6317805;28;20070;-67
2023/03/23 13:42:52;;;;;;;11.80;6.00;;;;;;;5.97;51.74;97105.09;6318770;28;20453;-68
2023/03/23 13:46:18;;;;;;;9.95;5.80;;;;;;;5.44;53.51;97104.69;6318706;28;20040;-68
2023/03/23 13:49:22;;;;;;;;;;;;;;;5.01;52.67;97101.16;6317166;28;20557;-67
2023/03/23 13:52:51;;;;;;;8.20;5.97;;;;;;;4.98;53.94;97116.94;6318071;28;19916;-68
2023/03/23 13:56:06;;;;;;;10.20;5.35;;;;;;;4.73;55.26;97112.66;6288626;28;20051;-68
2023/03/23 13:59:15;;;;;;;10.63;6.20;;;;;;;4.47;56.31;97113.63;6318233;28;20101;-68
2023/03/23 14:02:43;;;;;;;6.88;4.57;;;;;;;4.38;56.54;97109.59;6318451;28;20040;-69
2023/03/23 14:06:00;;;;;;;8.73;5.95;;;;;;;4.20;57.52;97123.28;6317823;28;20051;-68
2023/03/23 14:09:23;;;;;;;9.65;6.10;;;;;;;4.01;58.31;97117.88;6316731;28;20063;-67
2023/03/23 14:12:29;;;;;;;10.70;7.28;;;;;;;3.78;59.36;97116.91;6318197;28;20055;-67
2023/03/23 14:15:43;;;;;;;7.22;3.92;;;;;;;3.57;59.83;97095.06;6320276;28;20044;-68
2023/03/23 14:18:55;;;;;;;12.50;7.00;;;;;;;3.55;60.63;97125.47;6322474;28;20058;-67
2023/03/23 14:22:02;;;;;;;7.55;4.97;;;;;;;3.46;61.28;97125.78;6323149;28;20082;-68
2023/03/23 14:25:17;;;;;;;9.77;7.47;;;;;;;3.24;62.12;97119.56;6322538;28;20426;-67
2023/03/23 14:28:22;;;;;;;7.45;3.75;;;;;;;3.11;62.73;97119.97;6321202;28;20158;-68
2023/03/23 14:31:26;;;;;;;10.13;6.30;;;;;;;2.89;63.27;97119.78;6320855;28;20066;-67
2023/03/23 14:34:33;;;;;;;10.80;6.32;;;;;;;2.78;63.89;97118.41;6322566;28;20047;-69
2023/03/23 14:37:37;;;;;;;11.88;6.35;;;;;;;2.75;64.42;97115.91;6322308;28;20044;-67
2023/03/23 14:40:39;;;;;;;8.55;5.53;;;;;;;2.67;65.39;97126.50;6321658;28;20456;-68
2023/03/23 14:43:40;;;;;;;9.63;6.18;;;;;;;2.44;66.00;97132.38;6322094;28;20458;-68
2023/03/23 14:46:52;;;;;;;9.88;6.03;;;;;;;2.41;65.93;97122.06;6322358;28;20046;-67
2023/03/23 14:49:56;;;;;;;9.65;5.68;;;;;;;2.33;66.56;97124.03;6321604;28;20048;-67
2023/03/23 14:53:29;;;;;;;6.25;4.30;;;;;;;2.41;67.15;97127.28;6322163;28;20042;-70